Time;durP1;ratioP1;P1;durP2;ratioP2;P2;SDS_P1;SDS_P2;PMS_P1;PMS_P2;Temp;Humidity;BMP_temperature;BMP_pressure;BME280_temperature;BME280_humidity;BME280_pressure;Samples;Min_cycle;Max_cycle;Signal;HPM_P1;HPM_P2
2022/07/04 00:00:07;;;;;;;3.80;2.10;;;;;;;15.30;100.00;93331.63;2096870;28;20020;-81
2022/07/04 00:01:08;;;;;;;3.67;2.45;;;;;;;15.29;100.00;93335.50;2090728;28;20048;-81
2022/07/04 00:02:10;;;;;;;4.22;2.38;;;;;;;15.24;100.00;93333.38;2089918;28;20048;-81
2022/07/04 00:03:11;;;;;;;4.50;2.38;;;;;;;15.27;100.00;93335.94;2098200;28;20104;-82
2022/07/04 00:04:12;;;;;;;3.53;2.33;;;;;;;15.12;100.00;93334.94;2089768;28;20029;-81
2022/07/04 00:05:14;;;;;;;3.90;2.13;;;;;;;15.24;100.00;93342.22;2098146;28;20020;-82
2022/07/04 00:06:16;;;;;;;3.88;1.90;;;;;;;15.22;100.00;93343.84;2097988;28;20452;-82
2022/07/04 00:07:19;;;;;;;3.88;2.10;;;;;;;15.19;100.00;93337.41;2106446;28;20024;-82
2022/07/04 00:08:20;;;;;;;2.00;1.80;;;;;;;15.26;100.00;93333.69;2097879;28;20047;-82
2022/07/04 00:09:21;;;;;;;2.38;1.70;;;;;;;15.33;100.00;93325.34;2081406;28;20025;-82
2022/07/04 00:10:22;;;;;;;5.25;1.95;;;;;;;15.31;100.00;93333.13;2083052;28;20250;-81
2022/07/04 00:11:24;;;;;;;3.88;2.00;;;;;;;15.43;100.00;93326.16;2087805;28;20401;-81
2022/07/04 00:12:25;;;;;;;5.25;1.90;;;;;;;15.48;100.00;93336.34;2089958;28;20373;-81
2022/07/04 00:13:26;;;;;;;7.28;2.10;;;;;;;15.50;100.00;93328.59;2103909;28;20044;-81
2022/07/04 00:14:27;;;;;;;8.63;1.88;;;;;;;15.48;100.00;93331.72;2099648;28;20507;-81
2022/07/04 00:15:28;;;;;;;3.08;1.90;;;;;;;15.51;100.00;93332.78;2092128;28;20377;-82
2022/07/04 00:16:34;;;;;;;4.65;1.75;;;;;;;15.56;100.00;93330.25;2098018;28;20037;-82
2022/07/04 00:17:35;;;;;;;7.38;1.67;;;;;;;15.67;100.00;93334.50;2091137;28;20025;-82
2022/07/04 00:18:39;;;;;;;2.08;1.77;;;;;;;15.67;100.00;93327.22;2089735;28;20089;-81
2022/07/04 00:19:40;;;;;;;2.80;1.60;;;;;;;15.72;100.00;93342.06;2090206;28;20029;-81
2022/07/04 00:20:41;;;;;;;4.45;1.75;;;;;;;15.69;100.00;93343.66;2089581;28;20752;-81
2022/07/04 00:21:42;;;;;;;2.20;1.60;;;;;;;15.66;100.00;93343.81;2089369;28;20416;-82
2022/07/04 00:22:44;;;;;;;2.60;1.75;;;;;;;15.68;100.00;93344.13;2073598;28;20029;-83
2022/07/04 00:23:45;;;;;;;1.83;1.67;;;;;;;15.72;100.00;93342.06;2089189;28;20024;-82
2022/07/04 00:24:46;;;;;;;3.05;1.60;;;;;;;15.73;100.00;93344.28;2073353;28;20021;-81
2022/07/04 00:25:52;;;;;;;3.63;1.77;;;;;;;15.79;100.00;93344.47;2078121;28;20097;-82
2022/07/04 00:26:53;;;;;;;2.28;1.50;;;;;;;15.85;100.00;93342.69;2076161;28;20486;-81
2022/07/04 00:27:55;;;;;;;2.60;1.65;;;;;;;15.88;100.00;93346.44;2076902;28;20083;-82
2022/07/04 00:28:56;;;;;;;2.55;1.60;;;;;;;15.93;100.00;93340.47;2083442;28;20025;-81
2022/07/04 00:29:57;;;;;;;7.85;1.45;;;;;;;16.00;100.00;93349.03;2079463;28;20104;-81
2022/07/04 00:30:58;;;;;;;4.32;1.88;;;;;;;16.00;100.00;93349.03;2089682;28;20103;-81
2022/07/04 00:32:00;;;;;;;3.20;1.45;;;;;;;16.21;100.00;93349.41;2081299;28;20033;-81
2022/07/04 00:33:01;;;;;;;3.13;1.60;;;;;;;16.29;100.00;93343.28;2074647;28;20022;-81
2022/07/04 00:34:03;;;;;;;3.78;1.63;;;;;;;16.25;100.00;93334.59;2081238;28;20044;-82
2022/07/04 00:35:06;;;;;;;4.63;1.58;;;;;;;16.31;100.00;93332.03;2073524;28;20521;-82
2022/07/04 00:36:08;;;;;;;3.30;1.83;;;;;;;16.30;100.00;93335.94;2065114;28;20125;-81
2022/07/04 00:37:11;;;;;;;5.90;1.70;;;;;;;16.27;100.00;93326.03;2073904;28;20060;-81
2022/07/04 00:38:12;;;;;;;2.25;1.42;;;;;;;16.15;100.00;93333.03;2097547;28;20076;-82
2022/07/04 00:39:13;;;;;;;5.65;1.60;;;;;;;16.19;100.00;93338.31;2089402;28;20021;-81
2022/07/04 00:40:15;;;;;;;5.30;1.95;;;;;;;16.22;100.00;93337.41;2089469;28;20080;-82
2022/07/04 00:41:16;;;;;;;3.25;1.67;;;;;;;16.29;100.00;93340.59;2090702;28;20499;-81
2022/07/04 00:42:18;;;;;;;8.27;1.90;;;;;;;16.47;100.00;93336.44;2097873;28;20024;-81
2022/07/04 00:43:26;;;;;;;3.53;1.48;;;;;;;16.44;100.00;93338.06;2089677;28;20021;-82
2022/07/04 00:44:29;;;;;;;1.88;1.67;;;;;;;16.44;100.00;93340.75;2098558;28;20473;-81
2022/07/04 00:45:30;;;;;;;2.42;1.63;;;;;;;16.47;100.00;93334.47;2089376;28;20029;-82
2022/07/04 00:46:32;;;;;;;2.13;1.63;;;;;;;16.47;100.00;93334.47;2081271;28;20417;-82
2022/07/04 00:47:33;;;;;;;4.47;1.80;;;;;;;16.49;100.00;93334.00;2084310;28;20025;-82
2022/07/04 00:48:34;;;;;;;4.60;1.80;;;;;;;16.47;100.00;93333.72;2089503;28;20025;-81
2022/07/04 00:49:37;;;;;;;6.28;1.85;;;;;;;16.42;100.00;93343.16;2081341;28;20491;-81
2022/07/04 00:50:38;;;;;;;3.55;1.73;;;;;;;16.40;100.00;93336.69;2081677;28;20033;-81
2022/07/04 00:51:41;;;;;;;3.88;2.10;;;;;;;16.46;100.00;93343.00;2089470;28;20083;-82
2022/07/04 00:52:42;;;;;;;6.05;1.77;;;;;;;16.52;100.00;93344.66;2089757;28;20044;-82
2022/07/04 00:53:45;;;;;;;6.10;1.85;;;;;;;16.53;100.00;93343.47;2088512;28;20051;-82
2022/07/04 00:54:47;;;;;;;3.00;1.60;;;;;;;16.69;100.00;93342.44;2089008;28;20060;-82
2022/07/04 00:55:50;;;;;;;1.85;1.42;;;;;;;16.97;100.00;93328.97;2081253;28;20028;-81
2022/07/04 00:56:51;;;;;;;3.67;1.58;;;;;;;16.95;100.00;93331.38;2081284;28;20115;-82
2022/07/04 00:57:52;;;;;;;4.20;1.60;;;;;;;16.81;100.00;93343.50;2081633;28;20084;-81
2022/07/04 00:58:53;;;;;;;8.10;1.80;;;;;;;16.72;100.00;93338.84;2078664;28;20029;-82
2022/07/04 00:59:54;;;;;;;6.38;1.75;;;;;;;16.71;100.00;93342.72;2073112;28;20037;-82
2022/07/04 01:00:57;;;;;;;6.00;1.90;;;;;;;16.70;100.00;93338.53;2081537;28;20018;-82
2022/07/04 01:02:00;;;;;;;1.95;1.42;;;;;;;16.71;100.00;93347.38;2089300;28;20033;-82
2022/07/04 01:03:01;;;;;;;2.88;1.70;;;;;;;16.70;100.00;93343.94;2096403;28;20028;-81
2022/07/04 01:04:03;;;;;;;3.08;1.70;;;;;;;16.67;100.00;93355.63;2097633;28;20475;-82
2022/07/04 01:05:06;;;;;;;2.35;1.70;;;;;;;16.63;100.00;93350.38;2094329;28;20052;-81
2022/07/04 01:06:11;;;;;;;4.57;1.60;;;;;;;16.62;100.00;93356.97;2084690;28;20021;-81
2022/07/04 01:07:12;;;;;;;4.60;1.80;;;;;;;16.61;100.00;93362.81;2088781;28;20091;-81
2022/07/04 01:08:15;;;;;;;5.20;1.90;;;;;;;16.61;100.00;93362.81;2093750;28;20114;-82
2022/07/04 01:09:17;;;;;;;4.55;2.00;;;;;;;16.60;100.00;93362.06;2097833;28;20028;-81
2022/07/04 01:10:18;;;;;;;5.28;1.70;;;;;;;16.62;100.00;93356.22;2105957;28;20016;-82
2022/07/04 01:11:19;;;;;;;4.57;1.90;;;;;;;16.60;100.00;93366.72;2105895;28;20517;-81
2022/07/04 01:12:28;;;;;;;6.20;1.85;;;;;;;16.61;100.00;93366.25;2087758;28;20126;-82
2022/07/04 01:13:29;;;;;;;9.30;1.88;;;;;;;16.61;100.00;93354.72;2082900;28;20029;-81
2022/07/04 01:14:30;;;;;;;4.60;1.63;;;;;;;16.59;100.00;93365.97;2080965;28;20028;-81
2022/07/04 01:15:31;;;;;;;6.85;1.70;;;;;;;16.58;100.00;93361.00;2072793;28;20544;-82
2022/07/04 01:16:34;;;;;;;6.75;1.90;;;;;;;16.72;100.00;93367.78;2081135;28;20110;-82
2022/07/04 01:17:36;;;;;;;4.05;1.40;;;;;;;16.77;100.00;93362.56;2089521;28;20107;-81
2022/07/04 01:18:38;;;;;;;3.35;1.35;;;;;;;16.77;100.00;93364.50;2089259;28;20029;-82
2022/07/04 01:19:39;;;;;;;5.05;1.48;;;;;;;16.71;100.00;93358.94;2080986;28;20094;-81
2022/07/04 01:20:41;;;;;;;2.10;1.52;;;;;;;16.59;100.00;93363.28;2088735;28;20044;-81
2022/07/04 01:21:44;;;;;;;4.40;1.35;;;;;;;16.62;100.00;93359.66;2089747;28;20118;-81
2022/07/04 01:22:46;;;;;;;6.97;1.50;;;;;;;16.64;100.00;93359.22;2089812;28;20032;-81
2022/07/04 01:23:48;;;;;;;2.88;1.45;;;;;;;16.55;100.00;93365.38;2092758;28;20025;-81
2022/07/04 01:24:50;;;;;;;3.45;1.52;;;;;;;16.53;100.00;93361.59;2089316;28;20020;-81
2022/07/04 01:25:52;;;;;;;3.65;1.70;;;;;;;16.53;100.00;93359.66;2089657;28;20024;-81
2022/07/04 01:26:53;;;;;;;3.47;1.73;;;;;;;16.54;100.00;93357.69;2097617;28;20543;-81
2022/07/04 01:27:54;;;;;;;2.47;1.60;;;;;;;16.56;100.00;93358.78;2089156;28;20025;-81
2022/07/04 01:28:56;;;;;;;3.53;1.70;;;;;;;16.62;100.00;93365.06;2089028;28;20048;-81
2022/07/04 01:29:57;;;;;;;3.35;1.50;;;;;;;16.55;100.00;93364.59;2081027;28;20029;-82
2022/07/04 01:31:01;;;;;;;2.50;1.77;;;;;;;16.52;100.00;93366.25;2093511;28;20385;-81
2022/07/04 01:32:08;;;;;;;1.50;1.40;;;;;;;16.52;100.00;93366.25;2086511;28;20033;-81
2022/07/04 01:33:10;;;;;;;3.42;1.30;;;;;;;16.49;100.00;93366.41;2081809;28;20022;-81
2022/07/04 01:34:11;;;;;;;3.47;1.73;;;;;;;16.50;100.00;93365.19;2089078;28;20167;-81
2022/07/04 01:35:12;;;;;;;5.80;1.60;;;;;;;16.49;100.00;93366.41;2097362;28;20043;-81
2022/07/04 01:36:13;;;;;;;3.35;1.92;;;;;;;16.55;100.00;93370.75;2105535;28;20024;-81
2022/07/04 01:37:15;;;;;;;7.70;1.48;;;;;;;16.50;100.00;93367.88;2089264;28;20112;-81
2022/07/04 01:38:16;;;;;;;2.92;1.25;;;;;;;16.54;100.00;93371.19;2080870;28;20034;-82
2022/07/04 01:39:17;;;;;;;2.00;1.23;;;;;;;16.51;100.00;93372.84;2081111;28;20025;-81
2022/07/04 01:40:19;;;;;;;3.97;1.70;;;;;;;16.52;100.00;93368.97;2089068;28;20117;-82
2022/07/04 01:41:20;;;;;;;2.70;1.50;;;;;;;16.49;100.00;93364.44;2096865;28;20121;-81
2022/07/04 01:42:21;;;;;;;1.88;1.70;;;;;;;16.54;100.00;93371.19;2083284;28;20514;-81
2022/07/04 01:43:22;;;;;;;7.97;1.77;;;;;;;16.49;100.00;93371.78;2084948;28;20115;-81
2022/07/04 01:44:23;;;;;;;3.15;1.63;;;;;;;16.48;100.00;93367.59;2097167;28;20544;-82
2022/07/04 01:45:25;;;;;;;3.25;1.70;;;;;;;16.27;100.00;93366.50;2080841;28;20487;-81
2022/07/04 01:46:26;;;;;;;1.52;1.40;;;;;;;16.33;100.00;93370.09;2080805;28;20053;-81
2022/07/04 01:47:27;;;;;;;3.08;1.52;;;;;;;16.38;100.00;93376.88;2081028;28;20029;-81
2022/07/04 01:48:30;;;;;;;5.03;1.73;;;;;;;16.34;100.00;93372.38;2080802;28;20390;-82
2022/07/04 01:49:31;;;;;;;2.58;1.45;;;;;;;16.37;100.00;93359.91;2081123;28;20406;-81
2022/07/04 01:50:33;;;;;;;1.80;1.70;;;;;;;16.39;100.00;93362.19;2080802;28;20363;-81
2022/07/04 01:51:34;;;;;;;4.20;1.70;;;;;;;16.29;100.00;93362.16;2081117;28;20755;-81
2022/07/04 01:52:35;;;;;;;4.35;1.92;;;;;;;16.09;100.00;93364.50;2080822;28;20025;-81
2022/07/04 01:53:37;;;;;;;3.42;1.70;;;;;;;16.19;100.00;93371.41;2072572;28;20025;-81
2022/07/04 01:54:38;;;;;;;2.58;1.60;;;;;;;16.25;100.00;93368.91;2089017;28;20029;-81
2022/07/04 01:55:39;;;;;;;2.97;1.65;;;;;;;16.29;100.00;93367.56;2097109;28;20114;-81
2022/07/04 01:56:41;;;;;;;4.38;2.05;;;;;;;16.25;100.00;93360.81;2092856;28;20037;-82
2022/07/04 01:57:42;;;;;;;3.63;2.10;;;;;;;16.24;100.00;93372.78;2092924;28;20044;-82
2022/07/04 01:58:43;;;;;;;5.50;1.83;;;;;;;16.25;100.00;93374.28;2089163;28;20071;-82
2022/07/04 02:02:23;;;;;;;7.40;1.60;;;;;;;16.21;100.00;93379.06;2108054;28;20039;-81
2022/07/04 02:03:25;;;;;;;5.53;2.20;;;;;;;16.16;100.00;93377.72;2105388;28;20487;-81
2022/07/04 02:04:26;;;;;;;7.47;1.73;;;;;;;16.13;100.00;93383.25;2107696;28;20385;-81
2022/07/04 02:05:28;;;;;;;4.57;1.65;;;;;;;16.11;100.00;93383.66;2111371;28;20515;-81
2022/07/04 02:06:33;;;;;;;2.60;1.67;;;;;;;16.16;100.00;93383.09;2105767;28;20019;-81
2022/07/04 02:07:35;;;;;;;4.78;1.67;;;;;;;16.12;100.00;93387.88;2102039;28;20424;-82
2022/07/04 02:09:55;;;;;;;5.00;1.70;;;;;;;15.96;100.00;93383.47;2097104;28;20025;-81
2022/07/04 02:10:56;;;;;;;4.22;1.77;;;;;;;16.07;100.00;93381.13;2092724;28;20032;-81
2022/07/04 02:14:09;;;;;;;2.45;1.70;;;;;;;16.12;100.00;93382.50;2147815;27;20112;-81
2022/07/04 02:15:10;;;;;;;3.67;1.80;;;;;;;16.15;100.00;93380.84;2121192;28;20039;-82
2022/07/04 02:16:11;;;;;;;4.20;1.70;;;;;;;16.16;100.00;93387.75;2104399;28;20020;-81
2022/07/04 02:17:13;;;;;;;3.10;1.60;;;;;;;16.17;100.00;93379.22;2112930;27;20035;-82
2022/07/04 02:18:14;;;;;;;4.03;1.83;;;;;;;16.20;100.00;93382.94;2121465;27;20118;-81
2022/07/04 02:19:16;;;;;;;2.85;1.55;;;;;;;16.20;100.00;93382.94;2112687;28;20062;-82
2022/07/04 02:20:18;;;;;;;2.35;1.83;;;;;;;16.21;100.00;93376.38;2121198;27;20106;-81
2022/07/04 02:21:19;;;;;;;4.50;1.77;;;;;;;16.22;100.00;93369.78;2112494;28;20016;-81
2022/07/04 02:22:20;;;;;;;6.82;2.00;;;;;;;16.22;100.00;93369.78;2101325;28;20028;-81
2022/07/04 02:23:21;;;;;;;2.50;1.80;;;;;;;16.19;100.00;93368.72;2112856;27;20552;-81
2022/07/04 02:24:24;;;;;;;8.38;2.40;;;;;;;16.21;100.00;93368.28;2129957;27;20018;-81
2022/07/04 02:25:25;;;;;;;5.07;2.30;;;;;;;16.23;100.00;93368.59;2138936;27;20069;-82
2022/07/04 02:26:26;;;;;;;3.40;2.20;;;;;;;16.21;100.00;93374.44;2120979;28;20028;-81
2022/07/04 02:27:28;;;;;;;3.28;2.05;;;;;;;16.16;100.00;93369.63;2112711;28;20047;-82
2022/07/04 02:28:29;;;;;;;4.80;2.20;;;;;;;16.11;100.00;93370.97;2123402;27;20381;-81
2022/07/04 02:29:30;;;;;;;6.60;2.10;;;;;;;16.04;100.00;93371.22;2110149;28;20031;-81
2022/07/04 02:30:31;;;;;;;4.85;1.88;;;;;;;15.90;100.00;93377.16;2104041;28;20032;-82
2022/07/04 02:31:32;;;;;;;2.30;2.00;;;;;;;15.95;100.00;93379.28;2112728;28;20048;-82
2022/07/04 02:32:35;;;;;;;2.47;1.70;;;;;;;15.94;100.00;93377.78;2120250;27;20063;-82
2022/07/04 02:33:36;;;;;;;2.70;1.70;;;;;;;15.93;100.00;93373.56;2121104;28;20377;-82
2022/07/04 02:34:38;;;;;;;3.33;2.00;;;;;;;15.90;100.00;93384.50;2121419;27;20136;-82
2022/07/04 02:35:39;;;;;;;3.33;1.85;;;;;;;15.85;100.00;93389.28;2121062;28;20519;-81
2022/07/04 02:36:40;;;;;;;3.40;1.98;;;;;;;15.90;100.00;93387.94;2112698;27;20092;-81
2022/07/04 02:37:41;;;;;;;2.88;1.60;;;;;;;15.82;100.00;93398.25;2112826;28;20031;-81
2022/07/04 02:38:43;;;;;;;4.82;1.83;;;;;;;15.71;100.00;93403.25;2104176;28;20158;-82
2022/07/04 02:39:45;;;;;;;3.65;1.90;;;;;;;15.75;100.00;93398.50;2104308;28;20024;-81
2022/07/04 02:40:47;;;;;;;5.05;1.80;;;;;;;15.65;100.00;93405.03;2121321;27;20152;-81
2022/07/04 02:41:48;;;;;;;4.80;2.00;;;;;;;15.69;100.00;93402.97;2113267;28;20028;-81
2022/07/04 02:42:49;;;;;;;8.30;2.03;;;;;;;15.72;100.00;93404.03;2096008;28;20024;-82
2022/07/04 02:43:52;;;;;;;5.00;1.85;;;;;;;15.70;100.00;93407.16;2104206;28;20530;-82
2022/07/04 02:44:53;;;;;;;2.58;1.80;;;;;;;15.66;100.00;93419.25;2104468;28;20070;-82
2022/07/04 02:45:55;;;;;;;3.95;1.88;;;;;;;15.59;100.00;93414.88;2095938;28;20374;-81
2022/07/04 02:46:56;;;;;;;4.75;1.95;;;;;;;15.52;100.00;93421.25;2104249;28;20119;-81
2022/07/04 02:47:59;;;;;;;3.22;1.70;;;;;;;15.58;100.00;93418.72;2104519;28;20492;-82
2022/07/04 02:49:00;;;;;;;2.17;1.70;;;;;;;15.51;100.00;93421.69;2104337;28;20024;-81
2022/07/04 02:50:02;;;;;;;4.15;2.20;;;;;;;15.45;100.00;93416.13;2095938;28;20032;-81
2022/07/04 02:51:03;;;;;;;5.13;1.92;;;;;;;15.46;100.00;93422.25;2104344;28;20028;-81
2022/07/04 02:52:05;;;;;;;6.07;1.75;;;;;;;15.56;100.00;93421.88;2095734;28;20047;-81
2022/07/04 02:53:07;;;;;;;7.80;2.55;;;;;;;15.43;100.00;93429.28;2104340;28;20074;-82
2022/07/04 02:54:08;;;;;;;2.90;2.00;;;;;;;15.54;100.00;93432.34;2104382;28;20024;-82
2022/07/04 02:55:09;;;;;;;2.20;1.88;;;;;;;15.59;100.00;93417.56;2095996;28;20021;-82
2022/07/04 02:56:12;;;;;;;5.40;2.10;;;;;;;15.65;100.00;93418.50;2104259;28;20062;-81
2022/07/04 02:57:14;;;;;;;2.85;1.92;;;;;;;15.60;100.00;93427.13;2120594;28;20386;-81
2022/07/04 02:58:16;;;;;;;3.58;1.70;;;;;;;15.65;100.00;93420.47;2121183;27;20126;-81
2022/07/04 02:59:17;;;;;;;5.10;2.00;;;;;;;15.62;100.00;93422.03;2129588;27;20025;-81
2022/07/04 03:00:18;;;;;;;4.05;1.88;;;;;;;15.47;100.00;93419.13;2115785;28;20103;-81
2022/07/04 03:01:20;;;;;;;7.32;1.98;;;;;;;15.51;100.00;93416.31;2112458;28;20026;-81
2022/07/04 03:02:21;;;;;;;3.40;1.85;;;;;;;15.56;100.00;93415.72;2112468;28;20115;-82
2022/07/04 03:03:24;;;;;;;2.65;2.00;;;;;;;15.58;100.00;93416.03;2103962;28;20107;-81
2022/07/04 03:04:25;;;;;;;3.28;1.73;;;;;;;15.58;100.00;93416.81;2088206;28;20090;-81
2022/07/04 03:05:31;;;;;;;5.68;2.10;;;;;;;15.56;100.00;93411.09;2104071;28;20028;-81
2022/07/04 03:06:33;;;;;;;6.45;1.83;;;;;;;15.56;100.00;93411.09;2113388;28;20391;-82
2022/07/04 03:07:34;;;;;;;2.65;2.00;;;;;;;15.56;100.00;93416.47;2112493;28;20492;-82
2022/07/04 03:08:36;;;;;;;4.18;1.90;;;;;;;15.44;100.00;93413.84;2104070;28;20028;-82
2022/07/04 03:09:38;;;;;;;4.80;1.92;;;;;;;15.38;100.00;93413.69;2112852;27;20023;-82
2022/07/04 03:10:39;;;;;;;4.28;2.17;;;;;;;15.41;100.00;93406.63;2112272;28;20020;-82
2022/07/04 03:11:40;;;;;;;2.00;1.80;;;;;;;15.47;100.00;93410.28;2104282;28;20044;-81
2022/07/04 03:12:41;;;;;;;3.53;2.30;;;;;;;15.40;100.00;93419.38;2103971;28;20016;-82
2022/07/04 03:13:42;;;;;;;5.53;2.20;;;;;;;15.37;100.00;93422.94;2112166;28;20046;-82
2022/07/04 03:14:43;;;;;;;2.80;1.88;;;;;;;15.39;100.00;93415.16;2121443;27;20104;-82
2022/07/04 03:15:46;;;;;;;3.45;1.80;;;;;;;15.42;100.00;93422.38;2120709;28;20027;-82
2022/07/04 03:16:47;;;;;;;3.47;2.00;;;;;;;15.45;100.00;93415.34;2112606;28;20069;-81
2022/07/04 03:17:48;;;;;;;3.53;2.05;;;;;;;15.45;100.00;93424.22;2104064;28;20059;-82
2022/07/04 03:18:49;;;;;;;5.35;2.40;;;;;;;15.44;100.00;93416.53;2103885;28;20616;-82
2022/07/04 03:19:51;;;;;;;5.10;1.83;;;;;;;15.42;100.00;93421.63;2095580;28;20033;-82
2022/07/04 03:20:52;;;;;;;2.97;1.90;;;;;;;15.46;100.00;93416.88;2104106;28;20023;-82
2022/07/04 03:21:53;;;;;;;3.60;1.65;;;;;;;15.47;100.00;93415.69;2120788;28;20391;-81
2022/07/04 03:22:54;;;;;;;4.50;2.58;;;;;;;15.47;100.00;93413.72;2112302;28;20030;-82
2022/07/04 03:23:58;;;;;;;6.10;1.70;;;;;;;15.41;100.00;93417.41;2103844;28;20098;-82
2022/07/04 03:24:59;;;;;;;1.90;1.80;;;;;;;15.38;100.00;93418.31;2101983;28;20016;-81
2022/07/04 03:26:01;;;;;;;2.28;1.92;;;;;;;15.44;100.00;93421.94;2106334;28;20538;-82
2022/07/04 03:27:03;;;;;;;3.03;1.92;;;;;;;15.42;100.00;93421.63;2098723;28;20024;-82
2022/07/04 03:28:04;;;;;;;3.92;1.98;;;;;;;15.26;100.00;93422.56;2098334;28;20031;-82
2022/07/04 03:29:05;;;;;;;6.40;2.10;;;;;;;15.28;100.00;93422.88;2098281;28;20068;-82
2022/07/04 03:30:07;;;;;;;5.00;2.10;;;;;;;15.15;100.00;93414.88;2098256;28;20031;-81
2022/07/04 03:31:08;;;;;;;3.20;1.92;;;;;;;15.25;100.00;93421.06;2098387;28;20115;-82
2022/07/04 03:32:09;;;;;;;3.45;1.90;;;;;;;15.33;100.00;93423.06;2098145;28;20489;-81
2022/07/04 03:33:10;;;;;;;2.45;1.90;;;;;;;15.37;100.00;93409.47;2098187;28;20107;-82
2022/07/04 03:34:11;;;;;;;4.47;1.90;;;;;;;15.43;100.00;93409.66;2098271;28;20111;-81
2022/07/04 03:35:13;;;;;;;2.58;1.90;;;;;;;15.40;100.00;93411.28;2098368;28;20098;-81
2022/07/04 03:36:14;;;;;;;5.95;2.42;;;;;;;15.30;100.00;93412.41;2098373;28;20020;-81
2022/07/04 03:37:15;;;;;;;3.90;2.17;;;;;;;15.13;100.00;93414.53;2098077;28;20060;-81
2022/07/04 03:38:16;;;;;;;4.72;2.17;;;;;;;15.03;100.00;93418.34;2106598;28;20020;-81
2022/07/04 03:39:17;;;;;;;3.85;2.30;;;;;;;15.12;100.00;93415.72;2106604;28;20020;-81
2022/07/04 03:40:20;;;;;;;4.07;2.20;;;;;;;15.19;100.00;93406.63;2106461;28;20105;-81
2022/07/04 03:41:21;;;;;;;3.30;2.10;;;;;;;15.23;100.00;93410.75;2106758;28;20020;-81
2022/07/04 03:42:22;;;;;;;4.45;2.10;;;;;;;15.25;100.00;93407.59;2106537;28;20052;-82
2022/07/04 03:43:26;;;;;;;6.00;2.25;;;;;;;15.22;100.00;93411.16;2098337;28;20020;-82
2022/07/04 03:44:27;;;;;;;2.67;2.13;;;;;;;15.23;100.00;93407.28;2098438;28;20017;-82
2022/07/04 03:45:29;;;;;;;3.72;1.98;;;;;;;15.19;100.00;93409.34;2089936;28;20033;-81
2022/07/04 03:46:30;;;;;;;3.33;2.20;;;;;;;15.20;100.00;93416.25;2098740;28;20025;-82
2022/07/04 03:47:32;;;;;;;2.25;1.85;;;;;;;15.24;100.00;93408.78;2106519;28;20024;-80
2022/07/04 03:48:33;;;;;;;5.78;1.77;;;;;;;15.24;100.00;93411.50;2098472;28;20017;-81
2022/07/04 03:49:34;;;;;;;4.97;1.95;;;;;;;15.15;100.00;93414.13;2098079;28;20392;-81
2022/07/04 03:50:35;;;;;;;3.90;2.03;;;;;;;15.14;100.00;93415.28;2098157;28;20032;-81
2022/07/04 03:51:36;;;;;;;5.15;2.15;;;;;;;15.05;100.00;93418.66;2089875;28;20108;-81
2022/07/04 03:52:38;;;;;;;2.85;2.30;;;;;;;15.08;100.00;93425.88;2098194;28;20024;-82
2022/07/04 03:53:40;;;;;;;2.55;1.83;;;;;;;14.99;100.00;93413.09;2106510;28;20050;-81
2022/07/04 03:54:41;;;;;;;2.25;2.00;;;;;;;15.03;100.00;93416.41;2098083;28;20025;-81
2022/07/04 03:55:43;;;;;;;2.15;1.92;;;;;;;15.08;100.00;93418.53;2081608;28;20406;-81
2022/07/04 03:56:44;;;;;;;6.45;2.25;;;;;;;15.11;100.00;93420.38;2081597;28;20030;-81
2022/07/04 03:57:47;;;;;;;2.33;2.13;;;;;;;15.08;100.00;93420.47;2103159;28;20484;-81
2022/07/04 03:58:48;;;;;;;2.88;2.03;;;;;;;15.04;100.00;93428.66;2106262;28;20714;-81
2022/07/04 03:59:52;;;;;;;2.97;2.22;;;;;;;15.00;100.00;93424.59;2089975;28;20063;-81
2022/07/04 04:00:55;;;;;;;4.25;2.00;;;;;;;15.07;100.00;93422.41;2098915;28;20032;-82
2022/07/04 04:01:56;;;;;;;2.35;1.95;;;;;;;15.13;100.00;93421.88;2098394;28;20101;-82
2022/07/04 04:02:58;;;;;;;4.50;2.30;;;;;;;15.11;100.00;93427.69;2106344;28;20050;-81
2022/07/04 04:05:30;;;;;;;3.45;2.00;;;;;;;15.20;100.00;93424.31;2105538;28;20546;-82
2022/07/04 04:06:33;;;;;;;2.92;2.05;;;;;;;15.23;100.00;93429.59;2099790;28;20115;-82
2022/07/04 04:07:35;;;;;;;3.88;2.08;;;;;;;15.19;100.00;93425.50;2098059;28;20028;-81
2022/07/04 04:08:36;;;;;;;3.75;1.92;;;;;;;15.23;100.00;93420.72;2114862;28;20510;-81
2022/07/04 04:09:38;;;;;;;3.20;2.05;;;;;;;15.20;100.00;93422.38;2102561;28;20056;-82
2022/07/04 04:10:39;;;;;;;4.50;2.47;;;;;;;15.23;100.00;93424.19;2081451;28;20421;-81
2022/07/04 04:11:40;;;;;;;7.72;2.28;;;;;;;15.25;100.00;93416.44;2081597;28;20025;-82
2022/07/04 04:12:41;;;;;;;5.72;2.10;;;;;;;15.31;100.00;93420.06;2085719;28;20025;-82
2022/07/04 04:13:44;;;;;;;6.60;2.30;;;;;;;15.38;100.00;93416.38;2089485;28;20132;-83
2022/07/04 04:14:45;;;;;;;8.40;2.20;;;;;;;15.41;100.00;93420.88;2098458;28;20027;-82
2022/07/04 04:15:46;;;;;;;6.82;2.13;;;;;;;15.36;100.00;93416.81;2097638;28;20496;-82
2022/07/04 04:16:50;;;;;;;4.63;2.13;;;;;;;15.28;100.00;93425.59;2089677;28;20075;-82
2022/07/04 04:17:51;;;;;;;5.15;2.25;;;;;;;15.29;100.00;93421.69;2098306;28;20154;-81
2022/07/04 04:18:52;;;;;;;3.40;2.25;;;;;;;15.39;100.00;93415.16;2097977;28;20089;-82
2022/07/04 04:19:54;;;;;;;6.43;2.33;;;;;;;15.45;100.00;93415.34;2097786;28;20024;-81
2022/07/04 04:20:55;;;;;;;4.63;2.40;;;;;;;15.43;100.00;93410.41;2097752;28;20111;-82
2022/07/04 04:21:56;;;;;;;5.95;2.40;;;;;;;15.48;100.00;93409.09;2106063;28;20027;-83
2022/07/04 04:22:57;;;;;;;3.58;2.30;;;;;;;15.48;100.00;93415.22;2097915;28;20086;-82
2022/07/04 04:23:58;;;;;;;5.03;2.90;;;;;;;15.49;100.00;93405.94;2097915;28;20071;-81
2022/07/04 04:25:00;;;;;;;4.68;2.28;;;;;;;15.47;100.00;93415.69;2114780;28;20032;-81
2022/07/04 04:26:01;;;;;;;2.55;2.20;;;;;;;15.46;100.00;93411.50;2097747;28;20078;-82
2022/07/04 04:27:03;;;;;;;4.25;2.25;;;;;;;15.49;100.00;93418.66;2092511;28;20029;-83
2022/07/04 04:28:04;;;;;;;4.20;1.90;;;;;;;15.52;100.00;93407.78;2089245;28;20036;-81
2022/07/04 04:29:05;;;;;;;7.10;2.30;;;;;;;15.52;100.00;93410.47;2088793;28;20025;-81
2022/07/04 04:30:07;;;;;;;4.03;2.13;;;;;;;15.53;100.00;93413.91;2097904;28;20024;-82
2022/07/04 04:31:08;;;;;;;10.88;2.70;;;;;;;15.55;100.00;93406.91;2105944;28;20016;-82
2022/07/04 04:32:13;;;;;;;3.60;2.22;;;;;;;15.59;100.00;93412.16;2106280;28;20032;-81
2022/07/04 04:33:14;;;;;;;4.38;2.00;;;;;;;15.58;100.00;93414.13;2098429;28;20028;-83
2022/07/04 04:34:16;;;;;;;6.57;2.33;;;;;;;15.58;100.00;93416.81;2097802;28;20032;-81
2022/07/04 04:35:17;;;;;;;3.53;2.00;;;;;;;15.64;100.00;93424.31;2089589;28;20021;-81
2022/07/04 04:36:18;;;;;;;5.25;2.30;;;;;;;15.68;100.00;93420.34;2105975;28;20035;-81
2022/07/04 04:37:19;;;;;;;4.72;2.28;;;;;;;15.71;100.00;93424.06;2105276;28;20024;-81
2022/07/04 04:38:20;;;;;;;4.00;2.30;;;;;;;15.71;100.00;93424.06;2097550;28;20142;-81
2022/07/04 04:39:21;;;;;;;4.88;2.20;;;;;;;15.72;100.00;93420.22;2106097;28;20031;-81
2022/07/04 04:40:23;;;;;;;3.00;2.30;;;;;;;15.78;100.00;93419.19;2114498;28;20026;-82
2022/07/04 04:41:25;;;;;;;6.35;2.30;;;;;;;15.74;100.00;93425.91;2105915;28;20115;-81
2022/07/04 04:42:26;;;;;;;9.18;3.15;;;;;;;15.76;100.00;93424.28;2089437;28;20112;-82
2022/07/04 04:43:27;;;;;;;4.93;2.38;;;;;;;15.76;100.00;93426.97;2089571;28;20530;-80
2022/07/04 04:44:28;;;;;;;5.57;2.40;;;;;;;15.75;100.00;93430.09;2089533;28;20112;-82
2022/07/04 04:45:29;;;;;;;4.20;2.53;;;;;;;15.80;100.00;93422.19;2089585;28;20028;-81
2022/07/04 04:46:31;;;;;;;3.15;2.10;;;;;;;15.86;100.00;93425.06;2088463;28;20028;-82
2022/07/04 04:47:32;;;;;;;3.50;2.03;;;;;;;15.92;100.00;93415.19;2097860;28;20048;-82
2022/07/04 04:48:33;;;;;;;3.97;2.20;;;;;;;15.85;100.00;93416.22;2114560;28;20019;-81
2022/07/04 04:49:34;;;;;;;3.78;2.28;;;;;;;15.86;100.00;93427.75;2114178;28;20024;-82
2022/07/04 04:50:36;;;;;;;6.47;2.28;;;;;;;15.91;100.00;93421.78;2104638;28;20047;-82
2022/07/04 04:51:38;;;;;;;3.25;2.28;;;;;;;15.90;100.00;93431.09;2105948;28;20997;-81
2022/07/04 04:52:39;;;;;;;5.57;2.53;;;;;;;15.90;100.00;93424.94;2105937;28;20032;-83
2022/07/04 04:53:40;;;;;;;2.85;2.00;;;;;;;15.93;100.00;93424.78;2114327;28;20019;-82